sensor_id;sensor_type;location;lat;lon;timestamp;P1;durP1;ratioP1;P2;durP2;ratioP2
30647;SDS011;17683;53.360;9.736;2022-08-03T00:01:50;7.55;;;4.57;;
30647;SDS011;17683;53.360;9.736;2022-08-03T00:04:15;4.72;;;3.95;;
30647;SDS011;17683;53.360;9.736;2022-08-03T00:06:41;6.05;;;4.40;;
30647;SDS011;17683;53.360;9.736;2022-08-03T00:09:08;5.28;;;4.50;;
30647;SDS011;17683;53.360;9.736;2022-08-03T00:11:34;6.28;;;4.57;;
30647;SDS011;17683;53.360;9.736;2022-08-03T00:14:00;5.70;;;4.57;;
30647;SDS011;17683;53.360;9.736;2022-08-03T00:16:27;6.00;;;4.90;;
30647;SDS011;17683;53.360;9.736;2022-08-03T00:18:53;6.00;;;5.18;;
30647;SDS011;17683;53.360;9.736;2022-08-03T00:21:18;5.13;;;4.63;;
30647;SDS011;17683;53.360;9.736;2022-08-03T00:23:44;4.80;;;4.07;;
30647;SDS011;17683;53.360;9.736;2022-08-03T00:26:10;6.40;;;4.38;;
30647;SDS011;17683;53.360;9.736;2022-08-03T00:28:35;7.53;;;4.95;;
30647;SDS011;17683;53.360;9.736;2022-08-03T00:31:01;4.97;;;4.00;;
30647;SDS011;17683;53.360;9.736;2022-08-03T00:33:27;4.93;;;4.43;;
30647;SDS011;17683;53.360;9.736;2022-08-03T00:35:52;6.13;;;5.00;;
30647;SDS011;17683;53.360;9.736;2022-08-03T00:38:18;5.15;;;4.43;;
30647;SDS011;17683;53.360;9.736;2022-08-03T00:40:44;5.03;;;4.63;;
30647;SDS011;17683;53.360;9.736;2022-08-03T00:43:10;8.20;;;5.80;;
30647;SDS011;17683;53.360;9.736;2022-08-03T00:45:37;4.93;;;4.45;;
30647;SDS011;17683;53.360;9.736;2022-08-03T00:48:06;5.07;;;4.55;;
30647;SDS011;17683;53.360;9.736;2022-08-03T00:50:35;5.63;;;5.10;;
30647;SDS011;17683;53.360;9.736;2022-08-03T00:53:05;6.22;;;5.10;;
30647;SDS011;17683;53.360;9.736;2022-08-03T00:55:31;6.40;;;4.85;;
30647;SDS011;17683;53.360;9.736;2022-08-03T00:57:58;7.22;;;4.95;;
30647;SDS011;17683;53.360;9.736;2022-08-03T01:00:26;5.20;;;4.80;;
30647;SDS011;17683;53.360;9.736;2022-08-03T01:02:53;5.97;;;5.35;;
30647;SDS011;17683;53.360;9.736;2022-08-03T01:05:21;5.75;;;5.25;;
30647;SDS011;17683;53.360;9.736;2022-08-03T01:07:52;5.45;;;4.88;;
30647;SDS011;17683;53.360;9.736;2022-08-03T01:15:57;5.80;;;4.47;;
30647;SDS011;17683;53.360;9.736;2022-08-03T01:18:50;5.65;;;5.05;;
30647;SDS011;17683;53.360;9.736;2022-08-03T01:30:05;6.00;;;5.25;;
30647;SDS011;17683;53.360;9.736;2022-08-03T01:32:34;5.30;;;4.90;;
30647;SDS011;17683;53.360;9.736;2022-08-03T01:35:12;6.15;;;5.20;;
30647;SDS011;17683;53.360;9.736;2022-08-03T01:37:50;5.25;;;4.75;;
30647;SDS011;17683;53.360;9.736;2022-08-03T01:40:21;6.03;;;5.38;;
30647;SDS011;17683;53.360;9.736;2022-08-03T01:42:51;5.28;;;4.88;;
30647;SDS011;17683;53.360;9.736;2022-08-03T01:45:19;8.80;;;5.53;;
30647;SDS011;17683;53.360;9.736;2022-08-03T01:47:47;12.73;;;5.90;;
30647;SDS011;17683;53.360;9.736;2022-08-03T01:50:14;5.95;;;5.07;;
30647;SDS011;17683;53.360;9.736;2022-08-03T01:52:45;6.07;;;5.57;;
30647;SDS011;17683;53.360;9.736;2022-08-03T01:55:12;6.32;;;5.55;;
30647;SDS011;17683;53.360;9.736;2022-08-03T01:57:41;5.65;;;5.13;;
30647;SDS011;17683;53.360;9.736;2022-08-03T02:00:09;5.22;;;4.82;;
30647;SDS011;17683;53.360;9.736;2022-08-03T02:02:35;6.28;;;5.68;;
30647;SDS011;17683;53.360;9.736;2022-08-03T02:05:03;5.15;;;4.65;;
30647;SDS011;17683;53.360;9.736;2022-08-03T02:07:30;5.53;;;5.05;;
30647;SDS011;17683;53.360;9.736;2022-08-03T02:09:58;5.60;;;5.10;;
30647;SDS011;17683;53.360;9.736;2022-08-03T02:12:25;7.20;;;5.10;;
30647;SDS011;17683;53.360;9.736;2022-08-03T02:14:53;6.60;;;5.05;;
30647;SDS011;17683;53.360;9.736;2022-08-03T02:17:21;6.68;;;5.30;;
30647;SDS011;17683;53.360;9.736;2022-08-03T02:19:49;6.00;;;5.40;;
30647;SDS011;17683;53.360;9.736;2022-08-03T02:22:16;6.05;;;4.88;;
30647;SDS011;17683;53.360;9.736;2022-08-03T02:24:43;8.77;;;5.28;;
30647;SDS011;17683;53.360;9.736;2022-08-03T02:27:27;6.05;;;5.55;;
30647;SDS011;17683;53.360;9.736;2022-08-03T02:29:55;5.97;;;5.25;;
30647;SDS011;17683;53.360;9.736;2022-08-03T02:32:30;6.05;;;5.55;;
30647;SDS011;17683;53.360;9.736;2022-08-03T02:35:00;5.40;;;4.88;;
30647;SDS011;17683;53.360;9.736;2022-08-03T02:37:31;5.72;;;5.30;;
30647;SDS011;17683;53.360;9.736;2022-08-03T02:40:00;6.20;;;5.70;;
30647;SDS011;17683;53.360;9.736;2022-08-03T02:42:28;6.18;;;5.40;;
30647;SDS011;17683;53.360;9.736;2022-08-03T02:44:57;5.72;;;5.25;;
30647;SDS011;17683;53.360;9.736;2022-08-03T02:47:26;8.27;;;6.07;;
30647;SDS011;17683;53.360;9.736;2022-08-03T02:49:54;6.28;;;5.45;;
30647;SDS011;17683;53.360;9.736;2022-08-03T02:52:23;6.25;;;5.55;;
30647;SDS011;17683;53.360;9.736;2022-08-03T02:54:52;8.20;;;6.10;;
30647;SDS011;17683;53.360;9.736;2022-08-03T02:57:21;7.50;;;6.10;;
30647;SDS011;17683;53.360;9.736;2022-08-03T02:59:50;8.68;;;6.05;;
30647;SDS011;17683;53.360;9.736;2022-08-03T03:02:17;6.88;;;6.10;;
30647;SDS011;17683;53.360;9.736;2022-08-03T03:04:44;8.45;;;5.68;;
30647;SDS011;17683;53.360;9.736;2022-08-03T03:07:14;6.32;;;5.70;;
30647;SDS011;17683;53.360;9.736;2022-08-03T03:09:40;9.18;;;5.60;;
30647;SDS011;17683;53.360;9.736;2022-08-03T03:12:07;6.80;;;6.22;;
30647;SDS011;17683;53.360;9.736;2022-08-03T03:14:35;6.22;;;5.72;;
30647;SDS011;17683;53.360;9.736;2022-08-03T03:17:01;6.68;;;6.00;;
30647;SDS011;17683;53.360;9.736;2022-08-03T03:19:29;7.05;;;6.00;;
30647;SDS011;17683;53.360;9.736;2022-08-03T03:21:56;8.27;;;5.35;;
30647;SDS011;17683;53.360;9.736;2022-08-03T03:24:27;6.55;;;5.80;;
30647;SDS011;17683;53.360;9.736;2022-08-03T03:26:54;6.60;;;6.00;;
30647;SDS011;17683;53.360;9.736;2022-08-03T03:29:21;8.27;;;6.00;;
30647;SDS011;17683;53.360;9.736;2022-08-03T03:31:47;6.57;;;5.95;;
30647;SDS011;17683;53.360;9.736;2022-08-03T03:34:12;6.55;;;5.93;;
30647;SDS011;17683;53.360;9.736;2022-08-03T03:36:39;7.75;;;5.75;;
30647;SDS011;17683;53.360;9.736;2022-08-03T03:39:05;8.25;;;6.18;;
30647;SDS011;17683;53.360;9.736;2022-08-03T03:41:31;7.00;;;6.03;;
30647;SDS011;17683;53.360;9.736;2022-08-03T03:43:57;8.77;;;6.63;;
30647;SDS011;17683;53.360;9.736;2022-08-03T03:46:23;6.93;;;6.18;;
30647;SDS011;17683;53.360;9.736;2022-08-03T03:48:49;7.10;;;6.15;;
30647;SDS011;17683;53.360;9.736;2022-08-03T03:51:15;7.28;;;6.55;;
30647;SDS011;17683;53.360;9.736;2022-08-03T03:53:53;7.68;;;6.30;;
30647;SDS011;17683;53.360;9.736;2022-08-03T03:56:22;7.90;;;6.32;;
30647;SDS011;17683;53.360;9.736;2022-08-03T03:58:48;7.53;;;6.65;;
30647;SDS011;17683;53.360;9.736;2022-08-03T04:01:14;6.60;;;6.00;;
30647;SDS011;17683;53.360;9.736;2022-08-03T04:03:41;6.70;;;6.10;;
30647;SDS011;17683;53.360;9.736;2022-08-03T04:06:06;7.10;;;6.50;;
30647;SDS011;17683;53.360;9.736;2022-08-03T04:08:50;6.70;;;6.10;;
30647;SDS011;17683;53.360;9.736;2022-08-03T04:12:08;6.30;;;5.78;;
30647;SDS011;17683;53.360;9.736;2022-08-03T04:14:33;8.38;;;5.97;;
30647;SDS011;17683;53.360;9.736;2022-08-03T04:17:07;6.22;;;5.63;;
30647;SDS011;17683;53.360;9.736;2022-08-03T04:19:36;8.40;;;6.13;;
30647;SDS011;17683;53.360;9.736;2022-08-03T04:22:06;7.07;;;6.38;;
30647;SDS011;17683;53.360;9.736;2022-08-03T04:24:39;7.13;;;6.50;;
30647;SDS011;17683;53.360;9.736;2022-08-03T04:27:17;7.15;;;6.35;;
30647;SDS011;17683;53.360;9.736;2022-08-03T04:29:49;6.78;;;6.07;;
30647;SDS011;17683;53.360;9.736;2022-08-03T04:32:17;6.68;;;6.15;;
30647;SDS011;17683;53.360;9.736;2022-08-03T04:34:44;6.18;;;5.70;;
30647;SDS011;17683;53.360;9.736;2022-08-03T04:37:12;8.68;;;6.53;;
30647;SDS011;17683;53.360;9.736;2022-08-03T04:39:42;6.75;;;6.25;;
30647;SDS011;17683;53.360;9.736;2022-08-03T04:42:12;7.60;;;6.40;;
30647;SDS011;17683;53.360;9.736;2022-08-03T04:44:40;7.18;;;6.47;;
30647;SDS011;17683;53.360;9.736;2022-08-03T04:47:08;6.78;;;6.18;;
30647;SDS011;17683;53.360;9.736;2022-08-03T04:49:35;7.65;;;6.63;;
30647;SDS011;17683;53.360;9.736;2022-08-03T04:52:02;7.22;;;6.63;;
30647;SDS011;17683;53.360;9.736;2022-08-03T04:54:29;7.95;;;7.00;;
30647;SDS011;17683;53.360;9.736;2022-08-03T04:56:55;7.15;;;6.22;;
30647;SDS011;17683;53.360;9.736;2022-08-03T04:59:20;7.05;;;6.45;;
30647;SDS011;17683;53.360;9.736;2022-08-03T05:01:46;7.68;;;6.97;;
30647;SDS011;17683;53.360;9.736;2022-08-03T05:04:12;9.77;;;7.18;;
30647;SDS011;17683;53.360;9.736;2022-08-03T05:06:37;8.15;;;7.32;;
30647;SDS011;17683;53.360;9.736;2022-08-03T05:09:03;7.65;;;6.88;;
30647;SDS011;17683;53.360;9.736;2022-08-03T05:11:29;7.10;;;6.50;;
30647;SDS011;17683;53.360;9.736;2022-08-03T05:13:55;8.18;;;7.38;;
30647;SDS011;17683;53.360;9.736;2022-08-03T05:16:21;8.30;;;7.45;;
30647;SDS011;17683;53.360;9.736;2022-08-03T05:18:47;8.60;;;6.93;;
30647;SDS011;17683;53.360;9.736;2022-08-03T05:21:12;6.78;;;6.18;;
30647;SDS011;17683;53.360;9.736;2022-08-03T05:23:38;7.90;;;6.97;;
30647;SDS011;17683;53.360;9.736;2022-08-03T05:26:05;7.95;;;6.80;;
30647;SDS011;17683;53.360;9.736;2022-08-03T05:28:31;7.70;;;7.00;;
30647;SDS011;17683;53.360;9.736;2022-08-03T05:30:56;8.35;;;7.55;;
30647;SDS011;17683;53.360;9.736;2022-08-03T05:33:22;9.15;;;7.18;;
30647;SDS011;17683;53.360;9.736;2022-08-03T05:35:48;8.00;;;6.78;;
30647;SDS011;17683;53.360;9.736;2022-08-03T05:38:13;7.32;;;6.68;;
30647;SDS011;17683;53.360;9.736;2022-08-03T05:40:39;7.85;;;6.45;;
30647;SDS011;17683;53.360;9.736;2022-08-03T05:43:05;7.88;;;6.50;;
30647;SDS011;17683;53.360;9.736;2022-08-03T05:45:31;9.10;;;7.03;;
30647;SDS011;17683;53.360;9.736;2022-08-03T05:47:56;7.43;;;6.72;;
30647;SDS011;17683;53.360;9.736;2022-08-03T05:50:22;8.15;;;6.75;;
30647;SDS011;17683;53.360;9.736;2022-08-03T05:52:48;7.68;;;6.53;;
30647;SDS011;17683;53.360;9.736;2022-08-03T05:55:13;8.38;;;6.80;;
30647;SDS011;17683;53.360;9.736;2022-08-03T05:57:39;7.00;;;6.28;;
30647;SDS011;17683;53.360;9.736;2022-08-03T06:00:06;9.02;;;6.45;;
30647;SDS011;17683;53.360;9.736;2022-08-03T06:02:33;6.97;;;6.43;;
30647;SDS011;17683;53.360;9.736;2022-08-03T06:05:00;6.97;;;6.32;;
30647;SDS011;17683;53.360;9.736;2022-08-03T06:07:25;6.72;;;6.03;;
30647;SDS011;17683;53.360;9.736;2022-08-03T06:09:51;8.43;;;6.05;;
30647;SDS011;17683;53.360;9.736;2022-08-03T06:12:17;6.45;;;5.93;;
30647;SDS011;17683;53.360;9.736;2022-08-03T06:14:43;5.78;;;5.28;;
30647;SDS011;17683;53.360;9.736;2022-08-03T06:17:08;7.53;;;5.75;;
30647;SDS011;17683;53.360;9.736;2022-08-03T06:19:34;5.90;;;5.22;;
30647;SDS011;17683;53.360;9.736;2022-08-03T06:22:00;5.45;;;4.95;;
30647;SDS011;17683;53.360;9.736;2022-08-03T06:24:25;5.90;;;4.57;;
30647;SDS011;17683;53.360;9.736;2022-08-03T06:26:51;5.22;;;4.70;;
30647;SDS011;17683;53.360;9.736;2022-08-03T06:29:17;6.50;;;4.93;;
30647;SDS011;17683;53.360;9.736;2022-08-03T06:31:42;4.65;;;4.18;;
30647;SDS011;17683;53.360;9.736;2022-08-03T06:34:09;5.50;;;3.90;;
30647;SDS011;17683;53.360;9.736;2022-08-03T06:36:35;4.45;;;4.05;;
30647;SDS011;17683;53.360;9.736;2022-08-03T06:39:00;5.95;;;4.28;;
30647;SDS011;17683;53.360;9.736;2022-08-03T06:41:27;5.28;;;4.15;;
30647;SDS011;17683;53.360;9.736;2022-08-03T06:43:53;5.43;;;3.95;;
30647;SDS011;17683;53.360;9.736;2022-08-03T06:46:19;7.00;;;3.63;;
30647;SDS011;17683;53.360;9.736;2022-08-03T06:48:45;4.18;;;3.30;;
30647;SDS011;17683;53.360;9.736;2022-08-03T06:51:11;4.38;;;3.92;;
30647;SDS011;17683;53.360;9.736;2022-08-03T06:53:37;7.10;;;3.53;;
30647;SDS011;17683;53.360;9.736;2022-08-03T06:56:06;3.80;;;3.47;;
30647;SDS011;17683;53.360;9.736;2022-08-03T06:58:32;3.72;;;3.35;;
30647;SDS011;17683;53.360;9.736;2022-08-03T07:00:58;4.50;;;3.38;;
30647;SDS011;17683;53.360;9.736;2022-08-03T07:03:24;5.28;;;4.10;;
30647;SDS011;17683;53.360;9.736;2022-08-03T07:05:50;5.38;;;3.67;;
30647;SDS011;17683;53.360;9.736;2022-08-03T07:08:16;3.78;;;3.47;;
30647;SDS011;17683;53.360;9.736;2022-08-03T07:10:43;4.40;;;3.33;;
30647;SDS011;17683;53.360;9.736;2022-08-03T07:13:09;8.77;;;3.65;;
30647;SDS011;17683;53.360;9.736;2022-08-03T07:15:35;3.58;;;2.90;;
30647;SDS011;17683;53.360;9.736;2022-08-03T07:18:01;3.72;;;3.00;;
30647;SDS011;17683;53.360;9.736;2022-08-03T07:20:27;4.38;;;3.60;;
30647;SDS011;17683;53.360;9.736;2022-08-03T07:22:53;3.40;;;2.80;;
30647;SDS011;17683;53.360;9.736;2022-08-03T07:25:19;4.05;;;3.00;;
30647;SDS011;17683;53.360;9.736;2022-08-03T07:27:45;6.05;;;2.80;;
30647;SDS011;17683;53.360;9.736;2022-08-03T07:30:13;8.00;;;3.42;;
30647;SDS011;17683;53.360;9.736;2022-08-03T07:32:39;5.85;;;3.33;;
30647;SDS011;17683;53.360;9.736;2022-08-03T07:35:06;4.10;;;2.92;;
30647;SDS011;17683;53.360;9.736;2022-08-03T07:37:32;6.13;;;3.40;;
30647;SDS011;17683;53.360;9.736;2022-08-03T07:39:59;4.68;;;3.00;;
30647;SDS011;17683;53.360;9.736;2022-08-03T07:42:26;7.20;;;3.33;;
30647;SDS011;17683;53.360;9.736;2022-08-03T07:44:53;3.63;;;2.90;;
30647;SDS011;17683;53.360;9.736;2022-08-03T07:47:19;3.60;;;3.30;;
30647;SDS011;17683;53.360;9.736;2022-08-03T07:49:48;5.57;;;2.70;;
30647;SDS011;17683;53.360;9.736;2022-08-03T07:52:14;4.22;;;3.22;;
30647;SDS011;17683;53.360;9.736;2022-08-03T07:54:58;7.43;;;3.22;;
30647;SDS011;17683;53.360;9.736;2022-08-03T07:57:24;3.13;;;2.67;;
30647;SDS011;17683;53.360;9.736;2022-08-03T07:59:49;6.38;;;3.00;;
30647;SDS011;17683;53.360;9.736;2022-08-03T08:02:15;4.38;;;2.83;;
30647;SDS011;17683;53.360;9.736;2022-08-03T08:04:41;4.47;;;3.42;;
30647;SDS011;17683;53.360;9.736;2022-08-03T08:07:06;2.95;;;2.55;;
30647;SDS011;17683;53.360;9.736;2022-08-03T08:09:32;5.15;;;3.80;;
30647;SDS011;17683;53.360;9.736;2022-08-03T08:11:58;5.57;;;2.75;;
30647;SDS011;17683;53.360;9.736;2022-08-03T08:14:24;4.60;;;2.70;;
30647;SDS011;17683;53.360;9.736;2022-08-03T08:16:50;3.47;;;2.97;;
30647;SDS011;17683;53.360;9.736;2022-08-03T08:19:16;11.90;;;3.15;;
30647;SDS011;17683;53.360;9.736;2022-08-03T08:21:42;5.35;;;3.05;;
30647;SDS011;17683;53.360;9.736;2022-08-03T08:24:08;7.85;;;2.90;;
30647;SDS011;17683;53.360;9.736;2022-08-03T08:26:34;6.03;;;3.08;;
30647;SDS011;17683;53.360;9.736;2022-08-03T08:29:00;3.47;;;3.03;;
30647;SDS011;17683;53.360;9.736;2022-08-03T08:31:26;5.80;;;2.58;;
30647;SDS011;17683;53.360;9.736;2022-08-03T08:33:52;5.32;;;2.80;;
30647;SDS011;17683;53.360;9.736;2022-08-03T08:36:18;3.20;;;2.88;;
30647;SDS011;17683;53.360;9.736;2022-08-03T08:38:44;4.78;;;2.88;;
30647;SDS011;17683;53.360;9.736;2022-08-03T08:41:10;5.03;;;3.00;;
30647;SDS011;17683;53.360;9.736;2022-08-03T08:43:37;3.97;;;2.55;;
30647;SDS011;17683;53.360;9.736;2022-08-03T08:46:03;5.22;;;2.67;;
30647;SDS011;17683;53.360;9.736;2022-08-03T08:48:32;8.23;;;2.78;;
30647;SDS011;17683;53.360;9.736;2022-08-03T08:51:00;4.40;;;2.78;;
30647;SDS011;17683;53.360;9.736;2022-08-03T08:53:27;6.70;;;2.72;;
30647;SDS011;17683;53.360;9.736;2022-08-03T08:55:54;4.75;;;2.25;;
30647;SDS011;17683;53.360;9.736;2022-08-03T08:58:24;7.32;;;2.10;;
30647;SDS011;17683;53.360;9.736;2022-08-03T09:00:53;3.45;;;2.28;;
30647;SDS011;17683;53.360;9.736;2022-08-03T09:03:18;6.57;;;2.83;;
30647;SDS011;17683;53.360;9.736;2022-08-03T09:05:44;4.35;;;2.58;;
30647;SDS011;17683;53.360;9.736;2022-08-03T09:08:10;5.97;;;2.65;;
30647;SDS011;17683;53.360;9.736;2022-08-03T09:10:36;4.28;;;2.53;;
30647;SDS011;17683;53.360;9.736;2022-08-03T09:13:02;4.28;;;2.40;;
30647;SDS011;17683;53.360;9.736;2022-08-03T09:15:28;3.35;;;2.05;;
30647;SDS011;17683;53.360;9.736;2022-08-03T09:17:56;5.70;;;2.55;;
30647;SDS011;17683;53.360;9.736;2022-08-03T09:20:24;5.22;;;2.53;;
30647;SDS011;17683;53.360;9.736;2022-08-03T09:25:41;4.95;;;2.40;;
30647;SDS011;17683;53.360;9.736;2022-08-03T09:28:10;5.07;;;3.13;;
30647;SDS011;17683;53.360;9.736;2022-08-03T09:30:42;4.85;;;2.58;;
30647;SDS011;17683;53.360;9.736;2022-08-03T09:33:10;6.43;;;2.70;;
30647;SDS011;17683;53.360;9.736;2022-08-03T09:40:48;7.40;;;2.17;;
30647;SDS011;17683;53.360;9.736;2022-08-03T09:43:14;4.60;;;2.28;;
30647;SDS011;17683;53.360;9.736;2022-08-03T09:45:40;4.10;;;2.60;;
30647;SDS011;17683;53.360;9.736;2022-08-03T09:48:27;10.30;;;2.58;;
30647;SDS011;17683;53.360;9.736;2022-08-03T09:50:55;5.82;;;2.30;;
30647;SDS011;17683;53.360;9.736;2022-08-03T09:53:22;5.45;;;2.20;;
30647;SDS011;17683;53.360;9.736;2022-08-03T09:55:59;7.22;;;2.92;;
30647;SDS011;17683;53.360;9.736;2022-08-03T09:58:27;8.23;;;2.47;;
30647;SDS011;17683;53.360;9.736;2022-08-03T10:00:55;5.93;;;2.47;;
30647;SDS011;17683;53.360;9.736;2022-08-03T10:03:23;5.60;;;2.42;;
30647;SDS011;17683;53.360;9.736;2022-08-03T10:05:50;5.90;;;2.25;;
30647;SDS011;17683;53.360;9.736;2022-08-03T10:08:17;5.97;;;2.30;;
30647;SDS011;17683;53.360;9.736;2022-08-03T10:10:44;3.22;;;2.28;;
30647;SDS011;17683;53.360;9.736;2022-08-03T10:13:12;7.68;;;2.30;;
30647;SDS011;17683;53.360;9.736;2022-08-03T10:15:39;4.10;;;2.25;;
30647;SDS011;17683;53.360;9.736;2022-08-03T10:18:05;5.25;;;2.67;;
30647;SDS011;17683;53.360;9.736;2022-08-03T10:20:32;6.97;;;2.58;;
30647;SDS011;17683;53.360;9.736;2022-08-03T10:23:12;5.55;;;2.60;;
30647;SDS011;17683;53.360;9.736;2022-08-03T10:25:40;5.88;;;2.08;;
30647;SDS011;17683;53.360;9.736;2022-08-03T10:28:12;6.72;;;2.72;;
30647;SDS011;17683;53.360;9.736;2022-08-03T10:30:41;6.22;;;2.20;;
30647;SDS011;17683;53.360;9.736;2022-08-03T10:33:21;6.72;;;2.72;;
30647;SDS011;17683;53.360;9.736;2022-08-03T10:35:52;4.00;;;2.72;;
30647;SDS011;17683;53.360;9.736;2022-08-03T10:38:22;9.13;;;2.60;;
30647;SDS011;17683;53.360;9.736;2022-08-03T10:40:53;5.82;;;2.10;;
30647;SDS011;17683;53.360;9.736;2022-08-03T10:43:21;4.38;;;2.30;;
30647;SDS011;17683;53.360;9.736;2022-08-03T10:45:50;4.93;;;2.25;;
30647;SDS011;17683;53.360;9.736;2022-08-03T10:48:17;3.67;;;2.00;;
30647;SDS011;17683;53.360;9.736;2022-08-03T10:50:44;7.20;;;2.60;;
30647;SDS011;17683;53.360;9.736;2022-08-03T10:53:12;7.00;;;2.60;;
30647;SDS011;17683;53.360;9.736;2022-08-03T11:01:01;11.25;;;2.42;;
30647;SDS011;17683;53.360;9.736;2022-08-03T11:03:31;6.32;;;2.20;;
30647;SDS011;17683;53.360;9.736;2022-08-03T11:06:14;8.82;;;2.40;;
30647;SDS011;17683;53.360;9.736;2022-08-03T11:08:43;4.50;;;2.03;;
30647;SDS011;17683;53.360;9.736;2022-08-03T11:14:00;4.32;;;2.20;;
30647;SDS011;17683;53.360;9.736;2022-08-03T11:16:29;4.53;;;1.90;;
30647;SDS011;17683;53.360;9.736;2022-08-03T11:18:59;5.65;;;2.50;;
30647;SDS011;17683;53.360;9.736;2022-08-03T11:35:16;6.05;;;1.95;;
30647;SDS011;17683;53.360;9.736;2022-08-03T11:45:57;4.20;;;2.40;;
30647;SDS011;17683;53.360;9.736;2022-08-03T11:48:25;6.68;;;2.20;;
30647;SDS011;17683;53.360;9.736;2022-08-03T11:50:52;5.82;;;2.85;;
30647;SDS011;17683;53.360;9.736;2022-08-03T11:53:19;4.40;;;2.05;;
30647;SDS011;17683;53.360;9.736;2022-08-03T11:55:45;4.70;;;1.73;;
30647;SDS011;17683;53.360;9.736;2022-08-03T11:58:18;4.93;;;2.30;;
30647;SDS011;17683;53.360;9.736;2022-08-03T12:00:48;5.03;;;2.20;;
30647;SDS011;17683;53.360;9.736;2022-08-03T12:03:18;7.35;;;2.38;;
30647;SDS011;17683;53.360;9.736;2022-08-03T12:05:51;8.45;;;2.17;;
30647;SDS011;17683;53.360;9.736;2022-08-03T12:08:39;9.10;;;2.03;;
30647;SDS011;17683;53.360;9.736;2022-08-03T12:11:05;4.53;;;2.13;;
30647;SDS011;17683;53.360;9.736;2022-08-03T12:13:39;4.00;;;2.28;;
30647;SDS011;17683;53.360;9.736;2022-08-03T12:16:07;6.32;;;2.20;;
30647;SDS011;17683;53.360;9.736;2022-08-03T12:18:34;7.40;;;2.50;;
30647;SDS011;17683;53.360;9.736;2022-08-03T12:21:09;7.03;;;2.28;;
30647;SDS011;17683;53.360;9.736;2022-08-03T12:23:36;6.80;;;2.60;;
30647;SDS011;17683;53.360;9.736;2022-08-03T12:26:04;7.07;;;2.30;;
30647;SDS011;17683;53.360;9.736;2022-08-03T12:28:32;4.70;;;2.25;;
30647;SDS011;17683;53.360;9.736;2022-08-03T12:31:02;3.58;;;2.25;;
30647;SDS011;17683;53.360;9.736;2022-08-03T12:33:34;7.97;;;2.30;;
30647;SDS011;17683;53.360;9.736;2022-08-03T12:36:22;7.63;;;2.33;;
30647;SDS011;17683;53.360;9.736;2022-08-03T12:38:55;5.85;;;2.17;;
30647;SDS011;17683;53.360;9.736;2022-08-03T12:41:29;4.28;;;2.33;;
30647;SDS011;17683;53.360;9.736;2022-08-03T12:43:57;6.30;;;2.40;;
30647;SDS011;17683;53.360;9.736;2022-08-03T12:46:28;5.95;;;2.85;;
30647;SDS011;17683;53.360;9.736;2022-08-03T12:51:35;8.15;;;2.33;;
30647;SDS011;17683;53.360;9.736;2022-08-03T12:54:03;5.20;;;2.13;;
30647;SDS011;17683;53.360;9.736;2022-08-03T12:56:29;6.20;;;2.22;;
30647;SDS011;17683;53.360;9.736;2022-08-03T12:58:55;10.52;;;2.63;;
30647;SDS011;17683;53.360;9.736;2022-08-03T13:01:21;4.97;;;2.35;;
30647;SDS011;17683;53.360;9.736;2022-08-03T13:03:49;9.45;;;2.47;;
30647;SDS011;17683;53.360;9.736;2022-08-03T13:06:17;6.13;;;1.90;;
30647;SDS011;17683;53.360;9.736;2022-08-03T13:08:47;6.18;;;2.30;;
30647;SDS011;17683;53.360;9.736;2022-08-03T13:11:24;5.05;;;2.13;;
30647;SDS011;17683;53.360;9.736;2022-08-03T13:13:51;5.97;;;2.88;;
30647;SDS011;17683;53.360;9.736;2022-08-03T13:16:18;8.15;;;2.58;;
30647;SDS011;17683;53.360;9.736;2022-08-03T13:18:46;5.47;;;2.65;;
30647;SDS011;17683;53.360;9.736;2022-08-03T13:21:16;6.20;;;2.38;;
30647;SDS011;17683;53.360;9.736;2022-08-03T13:23:42;4.18;;;2.25;;
30647;SDS011;17683;53.360;9.736;2022-08-03T13:26:08;7.47;;;2.60;;
30647;SDS011;17683;53.360;9.736;2022-08-03T13:28:35;8.85;;;2.67;;
30647;SDS011;17683;53.360;9.736;2022-08-03T13:31:00;6.93;;;2.20;;
30647;SDS011;17683;53.360;9.736;2022-08-03T13:33:26;7.65;;;2.42;;
30647;SDS011;17683;53.360;9.736;2022-08-03T13:35:53;7.90;;;2.40;;
30647;SDS011;17683;53.360;9.736;2022-08-03T13:38:19;8.05;;;2.53;;
30647;SDS011;17683;53.360;9.736;2022-08-03T13:40:45;9.32;;;2.50;;
30647;SDS011;17683;53.360;9.736;2022-08-03T13:43:10;6.75;;;2.35;;
30647;SDS011;17683;53.360;9.736;2022-08-03T13:45:36;3.95;;;2.45;;
30647;SDS011;17683;53.360;9.736;2022-08-03T13:48:02;6.32;;;2.30;;
30647;SDS011;17683;53.360;9.736;2022-08-03T13:50:29;4.50;;;2.20;;
30647;SDS011;17683;53.360;9.736;2022-08-03T13:52:55;5.28;;;2.20;;
30647;SDS011;17683;53.360;9.736;2022-08-03T13:55:22;3.83;;;2.33;;
30647;SDS011;17683;53.360;9.736;2022-08-03T13:57:47;4.80;;;3.08;;
30647;SDS011;17683;53.360;9.736;2022-08-03T14:00:14;6.97;;;2.45;;
30647;SDS011;17683;53.360;9.736;2022-08-03T14:02:40;4.13;;;2.67;;
30647;SDS011;17683;53.360;9.736;2022-08-03T14:05:06;5.10;;;2.33;;
30647;SDS011;17683;53.360;9.736;2022-08-03T14:07:32;3.72;;;2.17;;
30647;SDS011;17683;53.360;9.736;2022-08-03T14:09:58;5.35;;;2.38;;
30647;SDS011;17683;53.360;9.736;2022-08-03T14:12:25;6.93;;;2.50;;
30647;SDS011;17683;53.360;9.736;2022-08-03T14:14:51;6.70;;;2.20;;
30647;SDS011;17683;53.360;9.736;2022-08-03T14:17:17;5.63;;;2.13;;
30647;SDS011;17683;53.360;9.736;2022-08-03T14:19:43;5.32;;;2.65;;
30647;SDS011;17683;53.360;9.736;2022-08-03T14:22:09;4.70;;;2.45;;
30647;SDS011;17683;53.360;9.736;2022-08-03T14:24:34;7.57;;;2.22;;
30647;SDS011;17683;53.360;9.736;2022-08-03T14:27:00;5.20;;;2.33;;
30647;SDS011;17683;53.360;9.736;2022-08-03T14:29:26;7.10;;;2.15;;
30647;SDS011;17683;53.360;9.736;2022-08-03T14:31:51;7.72;;;2.25;;
30647;SDS011;17683;53.360;9.736;2022-08-03T14:34:17;4.13;;;2.10;;
30647;SDS011;17683;53.360;9.736;2022-08-03T14:36:43;7.22;;;2.45;;
30647;SDS011;17683;53.360;9.736;2022-08-03T14:39:11;7.38;;;2.47;;
30647;SDS011;17683;53.360;9.736;2022-08-03T14:41:37;8.93;;;2.17;;
30647;SDS011;17683;53.360;9.736;2022-08-03T14:44:03;5.15;;;2.67;;
30647;SDS011;17683;53.360;9.736;2022-08-03T14:46:29;7.55;;;2.35;;
30647;SDS011;17683;53.360;9.736;2022-08-03T14:48:56;8.55;;;2.60;;
30647;SDS011;17683;53.360;9.736;2022-08-03T14:51:22;3.97;;;1.85;;
30647;SDS011;17683;53.360;9.736;2022-08-03T14:53:48;10.95;;;3.28;;
30647;SDS011;17683;53.360;9.736;2022-08-03T14:56:14;8.70;;;2.15;;
30647;SDS011;17683;53.360;9.736;2022-08-03T14:58:39;7.15;;;2.00;;
30647;SDS011;17683;53.360;9.736;2022-08-03T15:01:05;6.15;;;2.10;;
30647;SDS011;17683;53.360;9.736;2022-08-03T15:03:31;6.43;;;2.13;;
30647;SDS011;17683;53.360;9.736;2022-08-03T15:05:57;3.25;;;1.90;;
30647;SDS011;17683;53.360;9.736;2022-08-03T15:08:23;4.47;;;2.40;;
30647;SDS011;17683;53.360;9.736;2022-08-03T15:10:50;8.27;;;2.67;;
30647;SDS011;17683;53.360;9.736;2022-08-03T15:13:16;5.55;;;2.38;;
30647;SDS011;17683;53.360;9.736;2022-08-03T15:15:43;6.88;;;2.30;;
30647;SDS011;17683;53.360;9.736;2022-08-03T15:18:09;5.97;;;2.42;;
30647;SDS011;17683;53.360;9.736;2022-08-03T15:20:35;10.13;;;2.78;;
30647;SDS011;17683;53.360;9.736;2022-08-03T15:23:01;7.13;;;2.10;;
30647;SDS011;17683;53.360;9.736;2022-08-03T15:25:27;4.65;;;2.58;;
30647;SDS011;17683;53.360;9.736;2022-08-03T15:27:52;4.70;;;2.50;;
30647;SDS011;17683;53.360;9.736;2022-08-03T15:30:18;6.00;;;2.83;;
30647;SDS011;17683;53.360;9.736;2022-08-03T15:32:44;6.00;;;2.28;;
30647;SDS011;17683;53.360;9.736;2022-08-03T15:35:10;8.93;;;2.40;;
30647;SDS011;17683;53.360;9.736;2022-08-03T15:37:35;7.35;;;2.63;;
30647;SDS011;17683;53.360;9.736;2022-08-03T15:40:01;4.93;;;2.45;;
30647;SDS011;17683;53.360;9.736;2022-08-03T15:42:28;8.05;;;1.88;;
30647;SDS011;17683;53.360;9.736;2022-08-03T15:44:54;5.57;;;2.70;;
30647;SDS011;17683;53.360;9.736;2022-08-03T15:47:20;6.63;;;1.98;;